Aviation Digital Data Service (ADDS)

Output produced by METARs form (1130 UTC 19 January 2019)
found at http://www.aviationweather.gov/metar/data/
 
EGAA 191120Z 11010KT 9999 SCT005 BKN009 06/05 Q1006
TAF EGAA 191053Z 1912/2012 10005KT 9999 SCT008 BKN025 
     TEMPO 1912/1919 4000 -RADZ BR BKN006 
     PROB30 1919/1924 3000 BR BKN004 
     PROB30 2000/2007 0800 FG BKN001 
     TEMPO 2007/2010 4000 RADZ BKN005 
     BECMG 2008/2011 33010KT
       
EGPL 191120Z 10001KT 9999 BKN016 06/04 Q1008
TAF EGPL 191058Z 1912/1915 11005KT 9999 BKN020 
     PROB40 
     TEMPO 1912/1915 BKN014
       
EGUB 191050Z AUTO 12012KT 9999 // SCT007/// OVC014/// 04/03 Q1008
EGKB 191120Z 13008KT 9999 BKN011 04/02 Q1009
TAF EGKB 191056Z 1912/1921 13007KT 9999 BKN012 
     TEMPO 1912/1920 6000 -RADZ BKN008 
     PROB30 
     TEMPO 1912/1918 4000 DZ BR BKN004
       
EGBB 191120Z 13009KT 8000 -DZ BKN007 03/03 Q1008 REDZ
TAF EGBB 191059Z 1912/2012 15009KT 9999 BKN010 
     TEMPO 1912/2012 6000 -RADZ BKN005 
     PROB30 
     TEMPO 1915/2010 2000 -DZ BR BKN003
       
EGNH 191120Z 11011KT 9999 -RA BKN010 04/03 Q1008
TAF EGNH 191059Z 1912/1921 11008KT 9999 FEW008 BKN010 
     TEMPO 1912/1921 6000 -RADZ BKN008
       
EGDM 191050Z AUTO 13009KT 9999 -RA BKN003/// BKN016/// 05/05 Q1007
EGHH 191120Z 13010KT 5000 RA BR BKN005 OVC007 06/06 Q1007
TAF EGHH 191101Z 1912/1921 13009KT 9999 BKN010 
     TEMPO 1912/1921 4000 RADZ BR BKN004
       
EGGD 191120Z 12006KT 9999 3500E -RA BKN002 06/06 Q1006
TAF EGGD 191057Z 1912/2012 14010KT 9999 BKN020 
     TEMPO 1912/1918 7000 SHRA BKN010 
     PROB40 
     TEMPO 1912/1915 3000 +SHRA BR BKN008 BKN014CB 
     PROB30 
     TEMPO 1912/1915 BKN003 
     BECMG 1915/1918 4000 BR SCT002 BKN005 
     PROB30 1918/2006 0300 FG OVC000 
     BECMG 1921/1924 06003KT
       
EGVN 191050Z 13009KT 9000 -RA BKN004 OVC006 04/04 Q1008 RERA TEMPO 6000 -RADZ
TAF EGVN 191032Z 1912/2012 11008KT 9999 BKN008 
     TEMPO 1912/1918 4000 -RADZ BKN005 
     PROB40 
     TEMPO 1912/1913 3000 -DZ BKN004 
     TEMPO 1918/2003 3000 BR BKN004 
     TEMPO 2003/2009 BKN006 
     PROB30 2009/2012 SCT015
       
EGCK 191120Z VRB03KT 9999 BKN023 08/05 Q1006
TAF EGCK 191059Z 1912/1921 VRB04KT 9999 FEW012 BKN030 
     TEMPO 1912/1921 6000 -RA BKN012
       
EGFF 191120Z AUTO 13006KT 9999 OVC003 07/07 Q1006
TAF EGFF 191059Z 1912/2012 12006KT 9999 OVC002 
     TEMPO 1912/1920 7000 SHRA BKN010 
     PROB30 
     TEMPO 1912/1920 4000 +SHRA BKN006CB 
     BECMG 1920/1923 4000 BR BKN012 
     TEMPO 1920/2012 BKN005 
     PROB30 1921/2008 0300 FG BKN001
       
EGLC 191120Z AUTO 11007KT 080V160 9999 OVC015 05/02 Q1010
TAF EGLC 190756Z 1909/1912 11007KT 9999 BKN022 
     TEMPO 1909/1912 6000 -RADZ BKN012 
     BECMG 1910/1912 BKN008
       
EGAC 191120Z AUTO 11010KT 9999 OVC010/// 06/05 Q1007
TAF EGAC 191100Z 1912/1921 10008KT 9999 SCT012 BKN025 
     TEMPO 1912/1921 6000 -RADZ BKN008 
     PROB30 
     TEMPO 1918/1921 4000 BR
       
EGXC 191050Z 14006KT 9999 VCSH FEW012 BKN032 02/00 Q1010 BLU
TAF EGXC 191037Z 1912/2006 14010KT 9999 FEW012 SCT035 
     PROB30 
     TEMPO 1912/2006 SCT012 
     BECMG 1921/1924 6000 HZ 
     PROB30 
     TEMPO 2002/2006 3000 BR
       
EGWC 190750Z 13011KT 9999 OVC008 04/03 Q1007 GRN
TAF EGWC 190801Z 1909/1918 14008KT 9999 BKN008 
     TEMPO 1909/1918 5000 -RA BKN003 
     PROB30 
     TEMPO 1909/1918 3000 RADZ
       
EGYD 191050Z AUTO 14011KT 9999 // SCT008/// BKN016/// 02/01 Q1010
TAF EGYD 190743Z 1909/1918 14012KT 9999 BKN010 
     PROB40 
     TEMPO 1909/1918 5000 -RADZ BKN006 
     PROB30 
     TEMPO 1909/1918 FEW010 BKN030
       
EGDR 191050Z AUTO 31009KT 3000 // FEW026/// BKN031/// 08/06 Q1006
EGPN 191120Z 29002KT 4500 HZ BKN023 03/02 Q1009
TAF EGPN 191058Z 1912/1917 VRB03KT 4500 HZ SCT025 
     BECMG 1912/1915 6000 NSW 
     PROB30 
     TEMPO 1915/1917 9999
       
EGPD 191120Z VRB01KT 8000 FEW024 03/01 Q1009
TAF EGPD 191059Z 1912/2012 VRB04KT 9999 BKN020 
     PROB40 
     TEMPO 1912/1924 6000 BKN012 
     BECMG 2009/2012 29010KT 
     PROB30 
     TEMPO 2010/2012 8000 -RA
       
EGNX 191120Z 13010KT 9999 BKN012 03/02 Q1009
TAF EGNX 191059Z 1912/2012 15012KT 9999 BKN012 
     TEMPO 1912/2012 6000 -RADZ BKN006 
     PROB30 
     TEMPO 1915/2010 2000 -DZ BR BKN003
       
EGPH 191120Z VRB02KT 9000 BKN018 02/01 Q1009
TAF EGPH 191059Z 1912/2012 VRB04KT 8000 SCT025 
     PROB40 
     TEMPO 1912/2010 4000 BR 
     PROB30 
     TEMPO 1912/1918 BKN014 
     BECMG 2010/2012 9999
       
EGTE 191120Z 00000KT 9999 3000NW VCFG FEW001 07/07 Q1006
TAF EGTE 191101Z 1912/1921 VRB03KT 2000 BR SCT030 
     BECMG 1912/1915 9999 NSW 
     PROB30 
     TEMPO 1912/1921 7000 SHRA BKN010
       
EGVA 191056Z AUTO 12009KT M M OVC007 05/04 A2974 RMK AO2 RAE10RAB14E26 SLP077 P0000 T00460042 RVRNO $
EGLF 191120Z 11010KT 2500 -DZ BR BKN003 04/04 Q1008
TAF EGLF 191056Z 1912/1920 11008KT 6000 BKN005 
     TEMPO 1912/1920 3000 -DZ BR BKN003
       
EGKK 191120Z 13008KT 100V170 7000 -RA BKN007 05/04 Q1009
TAF EGKK 191054Z 1912/2018 10006KT 9999 BKN010 
     TEMPO 1912/2009 6000 -RADZ BKN007 
     PROB30 
     TEMPO 1912/1921 4000 RADZ BKN004 
     BECMG 2004/2007 SCT020
       
EGPF 191120Z AUTO 08006KT 4600 HZ BKN008 BKN022 OVC036 03/02 Q1009
TAF EGPF 191059Z 1912/2012 VRB04KT 7000 BKN018 
     TEMPO 1912/2006 4500 BR 
     PROB30 
     TEMPO 1912/1918 BKN009 
     BECMG 2009/2012 9999
       
EGBJ 191050Z 14005KT 9999 -RA FEW008 BKN011 06/05 Q1007
TAF EGBJ 191101Z 1912/1919 14006KT 9999 FEW008 BKN010 
     TEMPO 1912/1919 4000 -RADZ BKN008 
     PROB30 
     TEMPO 1912/1919 1200 RADZ BKN003
       
EGNR 191120Z 13008KT 4000 -DZ OVC006 05/04 Q1008
TAF EGNR 191059Z 1912/1919 14006KT 9999 BKN008 
     TEMPO 1912/1919 6000 -RADZ
       
EGLL 191120Z AUTO 12010KT 9999 OVC010 05/03 Q1009 NOSIG
TAF EGLL 191103Z 1912/2018 13010KT 9999 BKN010 
     TEMPO 1912/2006 6000 -RADZ BKN006 
     PROB30 
     TEMPO 1912/2006 BKN004 
     BECMG 2003/2006 07006KT 
     BECMG 2006/2009 SCT010
       
EGNJ 191120Z 14011KT 9000 SCT024 BKN030 04/01 Q1011
TAF EGNJ 191059Z 1912/1921 16008KT 9999 FEW012 SCT030 
     PROB30 
     TEMPO 1912/1921 8000 -RA FEW006 BKN012
       
EGPE 191120Z 22002KT CAVOK M00/M02 Q1009
TAF EGPE 191058Z 1912/1921 VRB03KT CAVOK
       
EGPI 191050Z AUTO 12009KT 090V150 9999 OVC011/// 05/04 Q1007 REDZ
TAF EGPI 191059Z 1912/1918 12009KT 9999 BKN012 
     TEMPO 1912/1918 6000 -RADZ BKN008
       
EGTK 191120Z 11006KT 6000 -RA BKN006 OVC007 04/03 Q1008
TAF EGTK 191101Z 1912/1921 12009KT 9999 BKN012 
     TEMPO 1912/1921 4000 -RADZ BKN006 
     PROB30 
     TEMPO 1912/1921 1200 RADZ BKN002
       
EGQK 191050Z AUTO 14001KT 9999 NCD 01/M01 Q1009
EGPA 191120Z 10003KT 9999 VCSH FEW006 FEW010CB SCT020 05/04 Q1009
TAF EGPA 191058Z 1912/1921 13007KT 9999 BKN020 
     PROB30 
     TEMPO 1912/1921 6000 SHRA BKN014
       
EGUL 191056Z AUTO 13008KT 9999 OVC041 04/M01 A2983 RMK AO2 SLP105 T00351007 $
EGNM 191120Z 13007KT 2000 BR BKN002 01/01 Q1009
TAF EGNM 191057Z 1912/2012 13006KT 5000 BR BKN005 
     TEMPO 1912/2012 1200 RADZ OVC001 
     PROB30 1918/2012 0300 FG
       
EGXE 191050Z AUTO 14008KT 6000 BR OVC006/// 02/01 Q1009
EGQL 191050Z 26002KT 4500 BR OVC023 02/02 Q1009 GRN
TAF EGQL 191101Z 1912/1921 29003KT 9999 FEW015 BKN030 
     TEMPO 1912/1921 BKN020 
     PROB30 
     TEMPO 1912/1921 7000 BR SCT014
       
EGXU 191050Z AUTO 14008KT 4900 // BKN007/// SCT014/// 02/01 Q1010
EGGP 191120Z 11008KT 090V160 8000 OVC007 04/03 Q1007
TAF EGGP 191100Z 1912/2012 14008KT 9999 BKN008 
     TEMPO 1912/2012 6000 -RADZ BKN006 
     PROB30 
     TEMPO 1912/1924 3000 RADZ BR BKN004 
     BECMG 2009/2012 32010KT FEW008 SCT030
       
EGAE 191120Z 00000KT 9000 FEW009 SCT015 BKN033 07/06 Q1006
TAF EGAE 191100Z 1912/1917 VRB03KT 9999 SCT012 BKN030 
     TEMPO 1912/1917 7000 -RADZ BKN007 
     PROB30 
     TEMPO 1912/1917 4000 RADZ
       
EGQS 191050Z 00000KT 9999 FEW002 M00/M01 Q1009 BLU
TAF EGQS 191026Z 1912/2006 19003KT CAVOK
       
EGGW 191120Z AUTO 13009KT 9999 OVC009 03/01 Q1009
TAF EGGW 191057Z 1912/2012 13010KT 9999 OVC008 
     PROB30 
     TEMPO 1912/2003 4000 RADZ BR OVC004 
     BECMG 2003/2006 03003KT SCT018 
     PROB30 
     TEMPO 2006/2012 7000 BKN014
       
EGMD 191120Z 15015KT 9999 FEW014 SCT042 05/02 Q1011
TAF EGMD 191056Z 1912/1921 15012KT 9999 FEW012 
     BECMG 1912/1915 BKN012 
     PROB30 
     TEMPO 1912/1921 6000 -RADZ
       
EGCC 191120Z AUTO 12005KT 020V170 9999 OVC011 04/01 Q1008
TAF EGCC 191100Z 1912/2018 14006KT 9999 FEW012 SCT030 
     TEMPO 1912/2006 8000 -RA BKN012 
     PROB30 
     TEMPO 1912/2006 4000 RADZ BKN008 
     BECMG 2006/2009 3000 -RADZ BR BKN006 
     BECMG 2009/2012 30010KT 9999 NSW FEW008 SCT030 
     TEMPO 2012/2018 6000 -RA BKN008
       
EGYM 191050Z AUTO 14009KT 9999 SCT042/// BKN050/// 03/00 Q1011
EGUN 191056Z AUTO 15012KT 9999 BKN040 BKN048 04/03 A2983 RMK AO2 SLP105 T00360029 .
EGNT 191120Z 16004KT 130V200 8000 SCT007 BKN020 03/01 Q1009
TAF EGNT 191100Z 1912/2012 17008KT 9999 FEW008 SCT030 
     TEMPO 1912/2012 6000 -RADZ BKN008 
     BECMG 2009/2012 27010KT
       
EGWU 191050Z 13011KT 9999 OVC013 05/02 Q1009 GRN TEMPO 7000 -RA GRN
TAF EGWU 191029Z 1912/2006 13008KT 9999 BKN012 
     PROB40 
     TEMPO 1912/1924 4000 -RADZ SCT005 BKN010 
     BECMG 2000/2003 FEW007 BKN015 
     PROB30 
     TEMPO 2003/2006 SCT007
       
EGSH 191120Z 14009KT CAVOK 04/01 Q1012 NOSIG
TAF EGSH 191101Z 1912/1921 13009KT 9999 FEW020
       
EGEO 191050Z 12006KT 100V160 9999 FEW018 SCT026 05/02 Q1008
TAF EGEO 191058Z 1912/1914 12004KT 9999 SCT025
       
EGVO 191050Z AUTO 12010KT 6000 BR OVC003/// 04/04 Q1008
EGPK 191120Z VRB02KT 9999 FEW018 SCT040 05/03 Q1009
TAF EGPK 191059Z 1912/2012 08004KT 9999 SCT020 
     PROB30 
     TEMPO 1912/1918 BKN014 
     PROB30 
     TEMPO 2010/2012 8000 -RA
       
EGXP 190950Z AUTO 13012KT 9999 // FEW006/// BKN040/// 01/00 Q1009
EGPM 191120Z AUTO 12006KT 9999 NCD 02/00 Q1012
TAF EGPM 190455Z 1906/1915 12009KT 9999 FEW035 
     PROB30 
     TEMPO 1906/1912 6000 SHRA
       
EGOS 191050Z AUTO 12008KT 9999 OVC006/// 04/03 Q1007 REDZ
EGKA 191120Z 15010KT 3000 -DZ FEW006 BKN008 06/05 Q1009
TAF EGKA 191056Z 1912/1919 15012KT 6000 -RADZ BKN006 
     TEMPO 1912/1919 3000 DZ BR BKN004
       
EGHI 191120Z 12004KT 080V150 9999 BKN015 06/04 Q1008
TAF EGHI 191101Z 1912/1921 12006KT 9999 BKN010 
     TEMPO 1912/1921 4000 -RADZ BKN004
       
EGMC 191120Z 13010KT 9999 BKN045 04/00 Q1010
TAF EGMC 191056Z 1912/1921 13009KT 9999 BKN040 
     TEMPO 1912/1921 6000 -RADZ BKN012
       
EGDX 191050Z 12005KT 9999 BKN004 BKN030 08/08 Q1005 YLO2
TAF EGDX 191046Z 1912/1918 VRB05KT 9999 SCT008 BKN025 
     TEMPO 1912/1918 FEW008 
     PROB30 
     TEMPO 1912/1918 4000 +SHRA SCT003 BKN008CB
       
EGSS 191120Z AUTO 13010KT 9999 OVC027 03/00 Q1010
TAF EGSS 191057Z 1912/2018 14012KT 9999 BKN026 
     TEMPO 1912/2003 OVC009 
     PROB30 
     TEMPO 1912/1924 4000 RADZ BR BKN003 
     BECMG 2003/2006 04003KT 
     PROB30 
     TEMPO 2003/2012 7000 BKN014
       
EGPO 191120Z 00000KT 9999 FEW025 03/00 Q1008
TAF EGPO 191058Z 1912/1921 VRB03KT 9999 FEW025
       
EGPB 191120Z 14007KT 9999 FEW015CB 05/01 Q1011
TAF EGPB 191058Z 1912/1921 12008KT 9999 FEW030 
     PROB30 
     TEMPO 1912/1921 6000 SHRAGS BKN014
       
EGNV 191120Z 18007KT 8000 BKN010 03/01 Q1010
TAF EGNV 191059Z 1912/1921 18006KT 9999 BKN015 
     TEMPO 1912/1921 6000 -RADZ FEW006 BKN012 
     PROB30 
     TEMPO 1912/1921 BKN006
       
EGPU 191120Z 13014KT 9999 FEW012 BKN030 06/04 Q1007
TAF EGPU 191058Z 1912/1919 12012KT 9999 BKN018 
     PROB30 
     TEMPO 1912/1919 8000 -SHRA BKN014
       
EGXZ 191050Z AUTO 13008KT 6000 BR OVC006/// 02/01 Q1010
EGOV 191050Z AUTO 09004KT 9999 BKN034/// 07/05 Q1005
EGXW 191050Z AUTO 14013KT 9999 BKN021/// BKN029/// 02/00 Q1010
EGUW 191050Z AUTO 15012KT 9999 BKN060/// 04/00 Q1011
EGPC 191120Z AUTO 17006KT 120V200 9999 -RA OVC028/// 05/03 Q1009
TAF EGPC 191058Z 1912/1921 15008KT 9999 SCT020 
     PROB30 
     TEMPO 1912/1915 8000 -SHRA BKN014
       
EGXT 191050Z AUTO 14007KT 9999 OVC020/// 02/01 Q1009
EGDY 191050Z AUTO 12005KT 9999 -RA SCT032/// BKN048/// 07/06 Q1006